Flight Track Log - Related Links

Times and Time Zones

All times are in EDT time to prevent confusion due to time zone crossing. See the N960DL flight status page for this flight to view local times or setup timezone preferences in your user account.

Time Position Orientation Groundspeed Altitude Reporting Facility
EDT Latitude Longitude Course Direction KTS MPH feet Rate Location/Type
Sun 08:18:59 AM 44.8897 -93.3050 203° Southwest 230 265 4,500  Level Minneapolis Center
Sun 08:20:00 AM 44.5877 -93.4556 202° Southwest  Level Estimated
Sun 08:20:01 AM 44.8267 -93.3556 210° Southwest 273 314 8,400  Level Minneapolis Center
Sun 08:21:00 AM 44.4896 -93.5330 198° South  Level Estimated
Sun 08:21:01 AM 44.7533 -93.4000 203° Southwest 293 337 11,800  Level Minneapolis Center
Sun 08:22:00 AM 44.3913 -93.6101 200° South  Level Estimated
Sun 08:22:02 AM 44.6636 -93.4639 207° Southwest 371 427 14,200  Level Minneapolis Center
Sun 08:23:00 AM 44.2931 -93.6870 197° South  Level Estimated
Sun 08:23:03 AM 44.5647 -93.5306 206° Southwest 400 460 17,800  Level Minneapolis Center
Sun 08:24:00 AM 44.1947 -93.7636 203° Southwest  Level Estimated
Sun 08:24:04 AM 44.4653 -93.5961 205° Southwest 399 459 20,700  Level Minneapolis Center
Sun 08:25:05 AM 44.3611 -93.6708 207° Southwest 417 480 22,800 2,678 Climbing Minneapolis Center
Sun 08:26:05 AM 44.2328 -93.7772 211° Southwest 444 511 26,100 2,727 Climbing Minneapolis Center
Sun 08:27:06 AM 44.1475 -93.8458 210° Southwest 445 512 28,300 1,918 Climbing Minneapolis Center
Sun 08:28:07 AM 44.0214 -93.9456 210° Southwest 439 505 30,000 836 Climbing Minneapolis Center
Sun 08:29:08 AM 43.9156 -94.0264 209° Southwest 436 502 30,000  Level Minneapolis Center
Sun 08:30:21 AM 43.8117 -94.1061 209° Southwest 430 495 30,000  Level Minneapolis Center
Sun 08:31:22 AM 43.6856 -94.2044 209° Southwest 434 499 30,000  Level Minneapolis Center
Sun 08:32:23 AM 43.5681 -94.2278 188° South 430 495 30,000  Level Minneapolis Center
Sun 08:33:36 AM 43.4444 -94.2361 183° South 433 498 30,000  Level Minneapolis Center
Sun 08:34:37 AM 43.3019 -94.2453 183° South 435 501 30,000  Level Minneapolis Center
Sun 08:35:38 AM 43.1622 -94.2539 183° South 432 497 30,000  Level Minneapolis Center
Sun 08:36:39 AM 43.0419 -94.2631 183° South 432 497 30,000  Level Minneapolis Center
Sun 08:37:40 AM 42.9439 -94.2675 182° South 431 496 30,000  Level Minneapolis Center
Sun 08:38:40 AM 42.7994 -94.2772 183° South 435 501 30,000  Level Minneapolis Center
Sun 08:39:41 AM 42.6806 -94.2867 183° South 433 498 30,000  Level Minneapolis Center
Sun 08:40:42 AM 42.5633 -94.3256 194° South 445 512 30,000  Level Minneapolis Center
Sun 08:41:43 AM 42.4672 -94.4011 210° Southwest 442 509 30,000  Level Minneapolis Center
Sun 08:42:44 AM 42.3603 -94.4811 209° Southwest 438 504 30,000  Level Minneapolis Center
Sun 08:43:45 AM 42.2325 -94.5789 210° Southwest 439 505 30,000  Level Minneapolis Center
Sun 08:44:46 AM 42.1253 -94.6603 209° Southwest 441 507 30,000 -1,475 Level Minneapolis Center
Sun 08:45:47 AM 42.0194 -94.7408 209° Southwest 437 503 27,000 -2,876 Descending Minneapolis Center
Sun 08:46:47 AM 41.9153 -94.8197 209° Southwest 430 495 24,200 -2,678 Descending Minneapolis Center
Sun 08:47:48 AM 41.8136 -94.8961 209° Southwest 419 482 21,600 -2,764 Descending Minneapolis Center
Sun 08:48:16 AM 41.7756 -94.9519 228° Southwest 417 480 20,100 -2,852 Descending Minneapolis Center
Sun 08:48:49 AM 41.7181 -94.9694 193° South 401 461 18,700 -2,507 Descending Minneapolis Center
Sun 08:49:23 AM 41.6722 -95.0269 223° Southwest 392 451 17,300 -1,726 Descending Minneapolis Center
Sun 08:50:02 AM 41.6236 -95.0403 192° South 390 449 16,600 -1,300 Descending Minneapolis Center
Sun 08:50:23 AM 41.5789 -95.0950 222° Southwest 381 438 16,000 -689 Descending Minneapolis Center
Sun 08:51:03 AM 41.5161 -95.1197 196° South 371 427 15,900 -689 Descending Minneapolis Center
Sun 08:51:24 AM 41.4992 -95.1525 235° Southwest 313 360 15,300 -1,574 Descending Minneapolis Center
Sun 08:52:04 AM 41.4667 -95.2061 231° Southwest 327 376 14,300 -1,770 Descending Minneapolis Center
Sun 08:52:25 AM 41.4583 -95.2522 256° West 299 344 13,500 -2,066 Descending Minneapolis Center
Sun 08:53:05 AM 41.4197 -95.3008 223° Southwest 312 359 12,200 -2,182 Descending Minneapolis Center
Sun 08:53:31 AM 41.4008 -95.3569 246° West 302 348 11,100 -2,164 Descending Minneapolis Center
Sun 08:54:06 AM 41.3733 -95.3911 223° Southwest 304 350 10,000 -2,262 Descending Minneapolis Center
Sun 08:54:32 AM 41.3522 -95.4408 241° Southwest 288 331 8,800 -2,200 Descending Minneapolis Center
Sun 08:55:06 AM 41.3208 -95.4728 217° Southwest 296 341 7,800 -2,111 Descending Minneapolis Center
Sun 08:55:26 AM 41.3003 -95.5083 232° Southwest 279 321 6,900 -2,164 Descending Minneapolis Center
Sun 08:56:07 AM 41.2672 -95.5433 219° Southwest 282 325 5,600 -2,262 Descending Minneapolis Center
Sun 08:56:27 AM 41.2467 -95.5786 232° Southwest 274 315 4,600 -1,574 Descending Minneapolis Center
Sun 08:57:08 AM 41.2136 -95.6147 219° Southwest 276 318 4,000 -689 Descending Minneapolis Center
Sun 08:57:28 AM 41.1950 -95.6486 234° Southwest 264 304 3,900 -295 Descending Minneapolis Center
Sun 08:58:09 AM 41.1672 -95.6869 226° Southwest 266 306 3,700 -727 Descending Minneapolis Center
Sun 08:58:34 AM 41.1583 -95.7278 254° West 219 252 3,100 -689 Descending Minneapolis Center
Sun 08:59:10 AM 41.1647 -95.7575 286° West 230 265 3,000 -109 Descending Minneapolis Center
Sun 08:59:29 AM 41.1808 -95.7803 313° West 172 198 3,000  Level Minneapolis Center

Login

Don't have an account? Register now (free) for customized features, flight alerts, and more!